createdAt,value
2019-01-18T00:00:21.975Z,2.57
2019-01-18T00:01:28.471Z,2.53
2019-01-18T00:02:34.640Z,2.61
2019-01-18T00:03:41.062Z,2.63
2019-01-18T00:04:47.716Z,2.53
2019-01-18T00:05:54.493Z,2.47
2019-01-18T00:07:00.843Z,2.59
2019-01-18T00:08:06.578Z,2.64
2019-01-18T00:09:12.612Z,2.54
2019-01-18T00:10:18.999Z,2.49
2019-01-18T00:11:25.129Z,2.46
2019-01-18T00:12:31.544Z,2.61
2019-01-18T00:13:37.878Z,2.48
2019-01-18T00:14:44.232Z,2.52
2019-01-18T00:15:49.966Z,2.43
2019-01-18T00:16:57.178Z,2.36
2019-01-18T00:18:02.794Z,2.37
2019-01-18T00:19:09.186Z,2.35
2019-01-18T00:20:14.873Z,2.37
2019-01-18T00:21:21.215Z,2.42
2019-01-18T00:22:27.587Z,2.42
2019-01-18T00:23:33.937Z,2.43
2019-01-18T00:24:40.285Z,2.37
2019-01-18T00:25:46.625Z,2.25
2019-01-18T00:26:52.970Z,2.25
2019-01-18T00:28:00.090Z,2.29
2019-01-18T00:29:05.999Z,2.29
2019-01-18T00:30:21.546Z,2.29
2019-01-18T00:31:27.877Z,2.55
2019-01-18T00:32:34.236Z,2.63
2019-01-18T00:33:40.234Z,2.44
2019-01-18T00:34:46.578Z,2.30
2019-01-18T00:35:52.890Z,2.38
2019-01-18T00:36:59.693Z,2.44
2019-01-18T00:38:06.579Z,2.45
2019-01-18T00:39:13.014Z,2.44
2019-01-18T00:40:18.722Z,2.49
2019-01-18T00:41:25.106Z,2.45
2019-01-18T00:42:31.430Z,2.36
2019-01-18T00:43:37.865Z,2.49
2019-01-18T00:44:44.223Z,2.42
2019-01-18T00:45:50.945Z,2.54
2019-01-18T00:46:57.830Z,2.62
2019-01-18T00:48:03.779Z,2.63
2019-01-18T00:49:09.757Z,2.51
2019-01-18T00:50:15.471Z,2.40
2019-01-18T00:51:21.829Z,2.52
2019-01-18T00:52:28.243Z,2.63
2019-01-18T00:53:34.613Z,2.72
2019-01-18T00:54:41.952Z,2.53
2019-01-18T00:55:48.293Z,2.47
2019-01-18T00:56:54.645Z,2.58
2019-01-18T00:58:00.949Z,2.50
2019-01-18T00:59:07.029Z,2.62
2019-01-18T01:00:17.963Z,2.64
2019-01-18T01:01:24.511Z,2.65
2019-01-18T01:02:30.619Z,2.58
2019-01-18T01:03:36.986Z,2.57
2019-01-18T01:04:43.016Z,2.63
2019-01-18T01:05:48.994Z,2.54
2019-01-18T01:06:55.370Z,2.65
2019-01-18T01:08:01.017Z,2.74
2019-01-18T01:09:07.099Z,2.67
2019-01-18T01:10:13.920Z,2.53
2019-01-18T01:11:19.842Z,2.70
2019-01-18T01:12:26.146Z,2.56
2019-01-18T01:13:32.559Z,2.46
2019-01-18T01:14:38.907Z,2.42
2019-01-18T01:15:44.890Z,2.44
2019-01-18T01:16:51.224Z,2.64
2019-01-18T01:17:57.569Z,2.68
2019-01-18T01:19:03.955Z,2.71
2019-01-18T01:20:09.631Z,2.59
2019-01-18T01:21:15.992Z,2.59
2019-01-18T01:22:22.002Z,2.45
2019-01-18T01:23:27.973Z,2.67
2019-01-18T01:24:34.306Z,2.73
2019-01-18T01:25:40.320Z,2.74
2019-01-18T01:26:46.678Z,2.62
2019-01-18T01:27:52.292Z,2.56
2019-01-18T01:28:58.848Z,2.53
2019-01-18T01:30:10.567Z,2.53
2019-01-18T01:31:16.896Z,2.49
2019-01-18T01:32:23.270Z,2.52
2019-01-18T01:33:29.647Z,2.54
2019-01-18T01:34:35.697Z,2.65
2019-01-18T01:35:41.751Z,2.63
2019-01-18T01:36:48.064Z,2.63
2019-01-18T01:37:53.679Z,2.58
2019-01-18T01:39:00.107Z,2.46
2019-01-18T01:40:05.754Z,2.57
2019-01-18T01:41:12.117Z,2.59
2019-01-18T01:42:18.115Z,2.62
2019-01-18T01:43:24.148Z,2.66
2019-01-18T01:44:30.543Z,2.57
2019-01-18T01:45:36.861Z,2.42
2019-01-18T01:46:43.235Z,2.63
2019-01-18T01:47:48.960Z,2.86
2019-01-18T01:48:55.288Z,2.92
2019-01-18T01:50:01.591Z,2.72
2019-01-18T01:51:07.947Z,2.66
2019-01-18T01:52:14.924Z,2.64
2019-01-18T01:53:21.744Z,2.60
2019-01-18T01:54:28.124Z,2.69
2019-01-18T01:55:34.496Z,2.60
2019-01-18T01:56:41.085Z,2.55
2019-01-18T01:57:47.205Z,2.61
2019-01-18T01:58:53.582Z,2.61
2019-01-18T01:59:59.957Z,2.68
2019-01-18T02:01:06.964Z,2.71
2019-01-18T02:02:13.307Z,2.71
2019-01-18T02:03:19.663Z,2.60
2019-01-18T02:04:26.002Z,2.52
2019-01-18T02:05:32.000Z,2.43
2019-01-18T02:06:38.401Z,2.52
2019-01-18T02:07:44.388Z,2.50
2019-01-18T02:08:50.737Z,2.36
2019-01-18T02:09:57.096Z,2.38
2019-01-18T02:11:03.439Z,2.25
2019-01-18T02:12:09.727Z,2.29
2019-01-18T02:13:16.485Z,2.35
2019-01-18T02:14:22.870Z,2.56
2019-01-18T02:15:29.207Z,2.38
2019-01-18T02:16:35.564Z,2.28
2019-01-18T02:17:41.605Z,2.36
2019-01-18T02:18:47.984Z,2.31
2019-01-18T02:19:54.390Z,2.29
2019-01-18T02:21:00.724Z,2.22
2019-01-18T02:22:06.402Z,2.41
2019-01-18T02:23:12.766Z,2.37
2019-01-18T02:24:18.826Z,2.45
2019-01-18T02:25:24.818Z,2.63
2019-01-18T02:26:31.172Z,2.51
2019-01-18T02:27:37.198Z,2.32
2019-01-18T02:28:43.540Z,2.41
2019-01-18T02:29:56.406Z,2.38
2019-01-18T02:30:56.305Z,2.33
2019-01-18T02:32:02.684Z,2.40
2019-01-18T02:33:09.051Z,2.33
2019-01-18T02:34:15.434Z,2.25
2019-01-18T02:35:21.768Z,2.20
2019-01-18T02:36:28.084Z,2.17
2019-01-18T02:37:35.055Z,2.18
2019-01-18T02:38:41.415Z,2.10
2019-01-18T02:39:47.814Z,2.18
2019-01-18T02:40:54.590Z,2.26
2019-01-18T02:42:00.907Z,2.19
2019-01-18T02:43:07.225Z,2.06
2019-01-18T02:44:13.590Z,2.01
2019-01-18T02:45:19.313Z,1.97
2019-01-18T02:46:25.653Z,1.86
2019-01-18T02:47:32.009Z,1.92
2019-01-18T02:48:38.362Z,1.95
2019-01-18T02:49:44.821Z,1.94
2019-01-18T02:50:51.202Z,1.70
2019-01-18T02:51:57.199Z,1.61
2019-01-18T02:53:03.549Z,1.41
2019-01-18T02:54:09.886Z,1.40
2019-01-18T02:55:16.936Z,1.38
2019-01-18T02:56:24.064Z,1.17
2019-01-18T02:57:30.403Z,0.90
2019-01-18T02:58:36.739Z,0.95
2019-01-18T02:59:43.106Z,0.86
2019-01-18T03:00:49.421Z,0.92
2019-01-18T03:01:55.347Z,0.83
2019-01-18T03:03:01.688Z,0.76
2019-01-18T03:04:07.734Z,0.87
2019-01-18T03:05:13.466Z,0.66
2019-01-18T03:06:19.542Z,0.64
2019-01-18T03:07:25.913Z,0.49
2019-01-18T03:08:31.593Z,0.41
2019-01-18T03:09:38.015Z,0.46
2019-01-18T03:10:44.426Z,0.38
2019-01-18T03:11:50.774Z,0.55
2019-01-18T03:12:57.113Z,0.51
2019-01-18T03:14:03.105Z,0.44
2019-01-18T03:15:08.752Z,0.40
2019-01-18T03:16:15.053Z,0.61
2019-01-18T03:17:21.618Z,0.71
2019-01-18T03:18:27.767Z,0.63
2019-01-18T03:19:33.828Z,0.55
2019-01-18T03:20:40.242Z,0.58
2019-01-18T03:21:46.616Z,0.61
2019-01-18T03:22:52.986Z,0.66
2019-01-18T03:23:59.348Z,0.50
2019-01-18T03:25:05.095Z,0.57
2019-01-18T03:26:11.524Z,0.48
2019-01-18T03:27:17.892Z,0.47
2019-01-18T03:28:24.251Z,0.42
2019-01-18T03:29:30.676Z,0.46
2019-01-18T03:30:37.077Z,0.63
2019-01-18T03:31:43.499Z,0.57
2019-01-18T03:32:49.191Z,0.55
2019-01-18T03:33:55.538Z,0.51
2019-01-18T03:35:02.011Z,0.60
2019-01-18T03:36:08.377Z,0.65
2019-01-18T03:37:15.071Z,0.66
2019-01-18T03:38:22.013Z,0.51
2019-01-18T03:39:29.012Z,0.46
2019-01-18T03:40:35.917Z,0.45
2019-01-18T03:41:42.251Z,0.46
2019-01-18T03:42:47.901Z,0.61
2019-01-18T03:43:53.553Z,0.61
2019-01-18T03:44:59.942Z,0.69
2019-01-18T03:46:06.307Z,0.46
2019-01-18T03:47:12.878Z,0.56
2019-01-18T03:48:19.243Z,0.66
2019-01-18T03:49:25.567Z,0.69
2019-01-18T03:50:31.957Z,0.67
2019-01-18T03:51:38.324Z,0.82
2019-01-18T03:52:44.347Z,0.78
2019-01-18T03:53:50.793Z,0.59
2019-01-18T03:54:57.145Z,0.66
2019-01-18T03:56:03.540Z,0.55
2019-01-18T03:57:09.925Z,0.34
2019-01-18T03:58:16.305Z,0.40
2019-01-18T03:59:22.631Z,0.33
2019-01-18T04:00:29.165Z,0.38
2019-01-18T04:01:35.809Z,0.48
2019-01-18T04:02:42.210Z,0.71
2019-01-18T04:03:50.230Z,0.74
2019-01-18T04:04:56.584Z,0.65
2019-01-18T04:06:02.648Z,0.49
2019-01-18T04:07:08.651Z,0.32
2019-01-18T04:08:14.706Z,0.42
2019-01-18T04:09:21.086Z,0.40
2019-01-18T04:10:27.718Z,0.41
2019-01-18T04:11:34.266Z,0.64
2019-01-18T04:12:40.764Z,0.80
2019-01-18T04:13:47.153Z,0.71
2019-01-18T04:14:53.572Z,0.42
2019-01-18T04:15:59.996Z,0.47
2019-01-18T04:17:06.340Z,0.45
2019-01-18T04:18:12.664Z,0.32
2019-01-18T04:19:19.004Z,0.51
2019-01-18T04:20:24.630Z,0.48
2019-01-18T04:21:31.498Z,0.72
2019-01-18T04:22:37.961Z,0.76
2019-01-18T04:23:44.170Z,0.80
2019-01-18T04:24:50.528Z,0.69
2019-01-18T04:25:56.986Z,0.57
2019-01-18T04:27:03.343Z,0.57
2019-01-18T04:28:09.720Z,0.76
2019-01-18T04:29:16.221Z,0.85
2019-01-18T04:30:21.976Z,0.78
2019-01-18T04:31:28.374Z,0.81
2019-01-18T04:32:34.766Z,0.97
2019-01-18T04:33:41.727Z,0.93
2019-01-18T04:34:48.207Z,0.85
2019-01-18T04:35:54.601Z,0.55
2019-01-18T04:37:00.573Z,0.72
2019-01-18T04:38:07.761Z,0.81
2019-01-18T04:39:14.098Z,0.45
2019-01-18T04:40:25.155Z,0.44
2019-01-18T04:41:31.550Z,0.64
2019-01-18T04:42:37.896Z,0.54
2019-01-18T04:43:44.227Z,0.51
2019-01-18T04:44:50.604Z,0.43
2019-01-18T04:45:57.119Z,0.45
2019-01-18T04:47:03.483Z,0.30
2019-01-18T04:48:09.856Z,0.30
2019-01-18T04:49:16.257Z,0.37
2019-01-18T04:50:22.010Z,0.46
2019-01-18T04:51:28.384Z,0.46
2019-01-18T04:52:34.723Z,0.42
2019-01-18T04:53:41.091Z,0.46
2019-01-18T04:54:47.423Z,0.56
2019-01-18T04:55:53.785Z,0.58
2019-01-18T04:57:00.147Z,0.50
2019-01-18T04:58:06.532Z,0.59
2019-01-18T04:59:12.871Z,0.50
2019-01-18T05:00:22.322Z,0.62
2019-01-18T05:01:28.741Z,0.60
2019-01-18T05:02:35.138Z,0.62
2019-01-18T05:03:41.525Z,0.67
2019-01-18T05:04:47.890Z,0.65
2019-01-18T05:05:54.265Z,0.60
2019-01-18T05:07:00.455Z,0.57
2019-01-18T05:08:06.884Z,0.49
2019-01-18T05:09:13.267Z,0.57
2019-01-18T05:10:18.957Z,0.64
2019-01-18T05:11:25.356Z,0.50
2019-01-18T05:12:31.830Z,0.57
2019-01-18T05:13:38.214Z,0.59
2019-01-18T05:14:44.532Z,0.63
2019-01-18T05:15:50.896Z,0.62
2019-01-18T05:16:57.289Z,0.50
2019-01-18T05:18:03.723Z,0.56
2019-01-18T05:19:10.075Z,0.65
2019-01-18T05:20:15.748Z,0.75
2019-01-18T05:21:22.157Z,0.65
2019-01-18T05:22:28.561Z,0.57
2019-01-18T05:23:34.918Z,0.53
2019-01-18T05:24:41.264Z,0.61
2019-01-18T05:25:47.677Z,0.62
2019-01-18T05:26:54.038Z,0.58
2019-01-18T05:28:00.355Z,0.70
2019-01-18T05:29:06.983Z,0.63
2019-01-18T05:30:13.441Z,0.57
2019-01-18T05:31:19.991Z,0.58
2019-01-18T05:32:26.541Z,0.67
2019-01-18T05:33:32.582Z,0.69
2019-01-18T05:34:38.939Z,0.73
2019-01-18T05:35:48.269Z,0.60
2019-01-18T05:36:54.685Z,0.71
2019-01-18T05:38:00.696Z,0.57
2019-01-18T05:39:06.685Z,0.45
2019-01-18T05:40:13.333Z,0.58
2019-01-18T05:41:19.674Z,0.37
2019-01-18T05:42:26.035Z,0.39
2019-01-18T05:43:32.377Z,0.34
2019-01-18T05:44:38.748Z,0.36
2019-01-18T05:45:44.854Z,0.41
2019-01-18T05:46:51.198Z,0.28
2019-01-18T05:47:58.578Z,0.25
2019-01-18T05:49:05.328Z,0.14
2019-01-18T05:50:11.732Z,0.16
2019-01-18T05:51:17.834Z,0.20
2019-01-18T05:52:24.168Z,0.31
2019-01-18T05:53:30.299Z,0.21
2019-01-18T05:54:36.704Z,0.27
2019-01-18T05:55:43.155Z,0.35
2019-01-18T05:56:49.526Z,0.12
2019-01-18T05:57:55.942Z,0.11
2019-01-18T05:59:02.317Z,0.03
2019-01-18T06:00:16.290Z,0.03
2019-01-18T06:01:22.777Z,0.12
2019-01-18T06:02:28.916Z,-0.01
2019-01-18T06:03:35.141Z,0.01
2019-01-18T06:04:40.948Z,-0.05
2019-01-18T06:05:46.776Z,0.08
2019-01-18T06:06:53.206Z,0.08
2019-01-18T06:07:59.640Z,0.22
2019-01-18T06:09:05.816Z,0.27
2019-01-18T06:10:13.537Z,0.29
2019-01-18T06:11:18.398Z,0.37
2019-01-18T06:12:25.697Z,0.32
2019-01-18T06:13:32.048Z,0.08
2019-01-18T06:14:38.362Z,-0.06
2019-01-18T06:15:44.765Z,-0.14
2019-01-18T06:16:51.132Z,-0.11
2019-01-18T06:17:57.643Z,-0.07
2019-01-18T06:19:04.040Z,0.09
2019-01-18T06:20:10.698Z,0.07
2019-01-18T06:21:17.049Z,0.15
2019-01-18T06:22:23.511Z,0.10
2019-01-18T06:23:29.888Z,0.24
2019-01-18T06:24:36.325Z,0.16
2019-01-18T06:25:42.747Z,0.10
2019-01-18T06:26:48.826Z,0.11
2019-01-18T06:27:54.850Z,-0.02
2019-01-18T06:29:01.257Z,-0.03
2019-01-18T06:30:08.193Z,-0.20
2019-01-18T06:31:14.753Z,-0.16
2019-01-18T06:32:21.144Z,-0.21
2019-01-18T06:33:27.527Z,-0.47
2019-01-18T06:34:33.859Z,-0.42
2019-01-18T06:35:40.253Z,-0.52
2019-01-18T06:36:46.259Z,-0.61
2019-01-18T06:37:52.307Z,-0.63
2019-01-18T06:38:58.715Z,-0.49
2019-01-18T06:40:04.421Z,-0.39
2019-01-18T06:41:10.707Z,-0.37
2019-01-18T06:42:17.074Z,-0.27
2019-01-18T06:43:23.535Z,-0.33
2019-01-18T06:44:29.891Z,-0.36
2019-01-18T06:45:36.259Z,-0.27
2019-01-18T06:46:42.723Z,-0.31
2019-01-18T06:47:49.079Z,-0.44
2019-01-18T06:48:56.167Z,-0.40
2019-01-18T06:50:02.522Z,-0.43
2019-01-18T06:51:08.858Z,-0.37
2019-01-18T06:52:15.836Z,-0.50
2019-01-18T06:53:22.183Z,-0.50
2019-01-18T06:54:28.249Z,-0.46
2019-01-18T06:55:34.284Z,-0.35
2019-01-18T06:56:40.771Z,-0.21
2019-01-18T06:57:46.481Z,-0.19
2019-01-18T06:58:52.813Z,-0.31
2019-01-18T06:59:59.135Z,-0.61
2019-01-18T07:01:08.623Z,-0.72
2019-01-18T07:02:11.182Z,-0.65
2019-01-18T07:03:18.086Z,-0.61
2019-01-18T07:04:24.467Z,-0.70
2019-01-18T07:05:30.773Z,-0.68
2019-01-18T07:06:37.093Z,-0.53
2019-01-18T07:07:43.166Z,-0.52
2019-01-18T07:08:49.217Z,-0.70
2019-01-18T07:09:55.596Z,-0.65
2019-01-18T07:11:01.937Z,-0.41
2019-01-18T07:12:07.943Z,-0.46
2019-01-18T07:13:14.600Z,-0.52
2019-01-18T07:14:21.652Z,-0.52
2019-01-18T07:15:28.018Z,-0.40
2019-01-18T07:16:34.445Z,-0.55
2019-01-18T07:17:40.149Z,-0.74
2019-01-18T07:18:46.534Z,-0.69
2019-01-18T07:19:52.935Z,-0.70
2019-01-18T07:20:59.271Z,-0.77
2019-01-18T07:22:05.288Z,-1.00
2019-01-18T07:23:11.635Z,-1.02
2019-01-18T07:24:18.515Z,-0.90
2019-01-18T07:25:25.140Z,-0.83
2019-01-18T07:26:31.503Z,-0.93
2019-01-18T07:27:37.826Z,-1.04
2019-01-18T07:28:44.273Z,-0.92
2019-01-18T07:29:50.721Z,-0.68
2019-01-18T07:30:57.184Z,-0.61
2019-01-18T07:32:03.526Z,-0.58
2019-01-18T07:33:09.522Z,-0.74
2019-01-18T07:34:15.875Z,-0.65
2019-01-18T07:35:22.206Z,-0.65
2019-01-18T07:36:28.543Z,-0.73
2019-01-18T07:37:34.858Z,-0.77
2019-01-18T07:38:41.469Z,-1.04
2019-01-18T07:39:48.036Z,-1.00
2019-01-18T07:40:54.371Z,-0.80
2019-01-18T07:42:00.669Z,-0.62
2019-01-18T07:43:06.713Z,-0.59
2019-01-18T07:44:13.804Z,-0.65
2019-01-18T07:45:20.283Z,-0.79
2019-01-18T07:46:26.643Z,-0.64
2019-01-18T07:47:33.038Z,-0.66
2019-01-18T07:48:39.403Z,-0.56
2019-01-18T07:49:45.736Z,-0.58
2019-01-18T07:50:51.863Z,-0.52
2019-01-18T07:51:57.910Z,-0.65
2019-01-18T07:53:03.531Z,-0.62
2019-01-18T07:54:09.959Z,-0.59
2019-01-18T07:55:16.019Z,-0.71
2019-01-18T07:56:22.342Z,-0.83
2019-01-18T07:57:28.692Z,-0.86
2019-01-18T07:58:35.871Z,-0.78
2019-01-18T07:59:42.762Z,-0.69
2019-01-18T08:00:49.109Z,-0.76
2019-01-18T08:01:55.525Z,-0.78
2019-01-18T08:03:01.876Z,-0.66
2019-01-18T08:04:08.201Z,-0.55
2019-01-18T08:05:14.282Z,-0.54
2019-01-18T08:06:20.291Z,-0.43
2019-01-18T08:07:26.270Z,-0.60
2019-01-18T08:08:32.700Z,-0.65
2019-01-18T08:09:39.070Z,-0.65
2019-01-18T08:10:45.451Z,-0.62
2019-01-18T08:11:51.821Z,-0.48
2019-01-18T08:12:57.850Z,-0.47
2019-01-18T08:14:03.633Z,-0.41
2019-01-18T08:15:09.949Z,-0.39
2019-01-18T08:16:16.301Z,-0.40
2019-01-18T08:17:22.781Z,-0.45
2019-01-18T08:18:29.238Z,-0.47
2019-01-18T08:19:35.571Z,-0.46
2019-01-18T08:20:41.562Z,-0.58
2019-01-18T08:21:47.895Z,-0.45
2019-01-18T08:22:54.043Z,-0.34
2019-01-18T08:24:00.485Z,-0.40
2019-01-18T08:25:06.145Z,-0.54
2019-01-18T08:26:12.536Z,-0.42
2019-01-18T08:27:18.574Z,-0.19
2019-01-18T08:28:24.938Z,-0.45
2019-01-18T08:29:31.298Z,-0.39
2019-01-18T08:30:37.267Z,-0.27
2019-01-18T08:31:43.812Z,-0.20
2019-01-18T08:32:49.837Z,-0.43
2019-01-18T08:33:55.877Z,-0.32
2019-01-18T08:35:02.246Z,-0.24
2019-01-18T08:36:08.267Z,-0.07
2019-01-18T08:37:14.269Z,-0.07
2019-01-18T08:38:20.607Z,0.11
2019-01-18T08:39:26.954Z,0.01
2019-01-18T08:40:33.335Z,-0.08
2019-01-18T08:41:39.680Z,-0.02
2019-01-18T08:42:46.810Z,0.06
2019-01-18T08:43:53.175Z,0.18
2019-01-18T08:44:59.552Z,0.10
2019-01-18T08:46:05.509Z,0.02
2019-01-18T08:47:11.908Z,-0.10
2019-01-18T08:48:18.307Z,-0.04
2019-01-18T08:49:24.646Z,0.04
2019-01-18T08:50:30.309Z,0.13
2019-01-18T08:51:36.638Z,0.20
2019-01-18T08:52:42.968Z,0.25
2019-01-18T08:53:49.302Z,-0.07
2019-01-18T08:54:55.694Z,0.03
2019-01-18T08:56:02.079Z,0.13
2019-01-18T08:57:08.428Z,0.15
2019-01-18T08:58:14.800Z,0.09
2019-01-18T08:59:21.218Z,0.28
2019-01-18T09:00:29.404Z,0.46
2019-01-18T09:01:36.036Z,0.48
2019-01-18T09:02:42.424Z,0.13
2019-01-18T09:03:49.415Z,0.07
2019-01-18T09:04:55.779Z,0.09
2019-01-18T09:06:02.082Z,0.25
2019-01-18T09:07:08.471Z,0.37
2019-01-18T09:08:14.066Z,0.13
2019-01-18T09:09:20.468Z,0.21
2019-01-18T09:10:26.164Z,0.08
2019-01-18T09:11:32.609Z,0.11
2019-01-18T09:12:38.927Z,0.02
2019-01-18T09:13:45.338Z,0.02
2019-01-18T09:14:51.719Z,-0.01
2019-01-18T09:15:58.091Z,0.12
2019-01-18T09:17:04.054Z,0.18
2019-01-18T09:18:10.043Z,0.20
2019-01-18T09:19:16.451Z,0.11
2019-01-18T09:20:22.921Z,0.09
2019-01-18T09:21:29.374Z,-0.05
2019-01-18T09:22:35.787Z,0.15
2019-01-18T09:23:41.787Z,0.02
2019-01-18T09:24:48.203Z,0.11
2019-01-18T09:25:54.553Z,0.09
2019-01-18T09:27:00.954Z,0.08
2019-01-18T09:28:07.324Z,0.11
2019-01-18T09:29:13.707Z,0.14
2019-01-18T09:30:20.036Z,0.31
2019-01-18T09:31:26.379Z,0.56
2019-01-18T09:32:32.697Z,0.56
2019-01-18T09:33:39.028Z,0.34
2019-01-18T09:34:45.440Z,0.21
2019-01-18T09:35:51.449Z,0.32
2019-01-18T09:36:57.814Z,0.17
2019-01-18T09:38:03.499Z,0.29
2019-01-18T09:39:09.576Z,0.25
2019-01-18T09:40:15.209Z,0.42
2019-01-18T09:41:21.504Z,0.28
2019-01-18T09:42:27.885Z,0.21
2019-01-18T09:43:34.408Z,0.29
2019-01-18T09:44:40.798Z,0.55
2019-01-18T09:45:47.895Z,0.65
2019-01-18T09:46:54.742Z,0.62
2019-01-18T09:48:01.575Z,0.75
2019-01-18T09:49:07.931Z,0.71
2019-01-18T09:50:15.344Z,0.96
2019-01-18T09:51:21.688Z,1.01
2019-01-18T09:52:28.041Z,1.06
2019-01-18T09:53:34.019Z,1.00
2019-01-18T09:54:40.406Z,1.02
2019-01-18T09:55:46.779Z,1.23
2019-01-18T09:56:53.097Z,1.30
2019-01-18T09:57:59.446Z,1.02
2019-01-18T09:59:05.439Z,1.02
2019-01-18T10:00:23.773Z,1.06
2019-01-18T10:01:30.070Z,0.94
2019-01-18T10:02:36.363Z,0.83
2019-01-18T10:03:42.705Z,0.90
2019-01-18T10:04:49.078Z,0.85
2019-01-18T10:05:55.425Z,0.86
2019-01-18T10:07:01.791Z,1.00
2019-01-18T10:08:07.434Z,1.02
2019-01-18T10:09:13.796Z,1.19
2019-01-18T10:10:19.437Z,1.13
2019-01-18T10:11:26.314Z,1.24
2019-01-18T10:12:32.634Z,1.36
2019-01-18T10:13:38.950Z,1.37
2019-01-18T10:14:45.338Z,1.42
2019-01-18T10:15:51.000Z,1.44
2019-01-18T10:16:57.027Z,1.38
2019-01-18T10:18:03.077Z,1.17
2019-01-18T10:19:09.454Z,1.19
2019-01-18T10:20:15.118Z,1.51
2019-01-18T10:21:21.496Z,1.49
2019-01-18T10:22:27.830Z,1.47
2019-01-18T10:23:33.832Z,1.33
2019-01-18T10:24:40.210Z,1.37
2019-01-18T10:25:46.553Z,1.43
2019-01-18T10:26:52.897Z,1.42
2019-01-18T10:28:00.582Z,1.61
2019-01-18T10:29:07.474Z,1.62
2019-01-18T10:30:24.211Z,1.60
2019-01-18T10:31:30.535Z,1.78
2019-01-18T10:32:36.886Z,1.81
2019-01-18T10:33:43.302Z,1.65
2019-01-18T10:34:49.683Z,1.88
2019-01-18T10:35:55.647Z,1.97
2019-01-18T10:37:01.969Z,1.91
2019-01-18T10:38:07.602Z,1.80
2019-01-18T10:39:13.932Z,1.78
2019-01-18T10:40:19.559Z,1.95
2019-01-18T10:41:25.970Z,2.04
2019-01-18T10:42:31.591Z,2.11
2019-01-18T10:43:37.947Z,2.10
2019-01-18T10:44:44.287Z,2.11
2019-01-18T10:45:50.244Z,1.96
2019-01-18T10:46:56.642Z,1.65
2019-01-18T10:48:03.097Z,1.49
2019-01-18T10:49:10.014Z,1.80
2019-01-18T10:50:15.970Z,1.91
2019-01-18T10:51:22.358Z,1.98
2019-01-18T10:52:28.351Z,2.00
2019-01-18T10:53:34.675Z,1.87
2019-01-18T10:54:41.008Z,1.62
2019-01-18T10:55:47.361Z,1.78
2019-01-18T10:56:53.715Z,1.83
2019-01-18T10:57:59.795Z,1.99
2019-01-18T10:59:06.165Z,1.98
2019-01-18T11:00:11.836Z,1.95
2019-01-18T11:01:18.268Z,1.96
2019-01-18T11:02:24.669Z,2.09
2019-01-18T11:03:31.157Z,2.08
2019-01-18T11:04:36.823Z,1.99
2019-01-18T11:05:43.244Z,2.19
2019-01-18T11:06:49.647Z,2.05
2019-01-18T11:07:55.955Z,2.01
2019-01-18T11:09:02.263Z,2.10
2019-01-18T11:10:10.002Z,2.12
2019-01-18T11:11:16.800Z,2.15
2019-01-18T11:12:23.137Z,2.11
2019-01-18T11:13:29.562Z,2.25
2019-01-18T11:14:35.251Z,2.26
2019-01-18T11:15:41.583Z,2.09
2019-01-18T11:16:47.924Z,2.12
2019-01-18T11:17:54.348Z,2.13
2019-01-18T11:19:00.732Z,1.92
2019-01-18T11:20:08.983Z,2.06
2019-01-18T11:21:14.599Z,2.16
2019-01-18T11:22:20.955Z,2.14
2019-01-18T11:23:27.377Z,2.08
2019-01-18T11:24:33.792Z,1.99
2019-01-18T11:25:39.722Z,2.03
2019-01-18T11:26:46.111Z,2.21
2019-01-18T11:27:52.463Z,2.10
2019-01-18T11:28:58.967Z,1.95
2019-01-18T11:30:13.412Z,1.76
2019-01-18T11:31:23.323Z,1.84
2019-01-18T11:32:25.664Z,2.08
2019-01-18T11:33:31.654Z,2.06
2019-01-18T11:34:38.063Z,1.92
2019-01-18T11:35:43.698Z,2.00
2019-01-18T11:36:49.985Z,2.26
2019-01-18T11:37:55.581Z,2.14
2019-01-18T11:39:01.975Z,2.28
2019-01-18T11:40:10.571Z,2.20
2019-01-18T11:41:16.558Z,2.24
2019-01-18T11:42:22.913Z,2.24
2019-01-18T11:43:29.288Z,2.42
2019-01-18T11:44:35.601Z,2.36
2019-01-18T11:45:41.926Z,2.09
2019-01-18T11:46:48.229Z,2.13
2019-01-18T11:47:54.619Z,2.34
2019-01-18T11:49:00.599Z,2.37
2019-01-18T11:50:13.084Z,2.33
2019-01-18T11:51:19.544Z,2.21
2019-01-18T11:52:26.840Z,2.25
2019-01-18T11:53:33.791Z,2.32
2019-01-18T11:54:43.994Z,2.21
2019-01-18T11:55:46.682Z,2.12
2019-01-18T11:56:53.073Z,2.19
2019-01-18T11:57:59.465Z,2.41
2019-01-18T11:59:05.890Z,2.44
2019-01-18T12:00:22.717Z,2.43
2019-01-18T12:01:29.053Z,2.33
2019-01-18T12:02:35.130Z,2.35
2019-01-18T12:03:41.857Z,2.47
2019-01-18T12:04:48.293Z,2.54
2019-01-18T12:05:54.640Z,2.43
2019-01-18T12:07:00.983Z,2.37
2019-01-18T12:08:06.966Z,2.48
2019-01-18T12:09:13.291Z,2.45
2019-01-18T12:10:20.304Z,2.30
2019-01-18T12:11:26.690Z,2.48
2019-01-18T12:12:33.003Z,2.41
2019-01-18T12:13:39.861Z,2.16
2019-01-18T12:14:46.343Z,2.28
2019-01-18T12:15:52.737Z,2.50
2019-01-18T12:16:59.601Z,2.31
2019-01-18T12:18:05.067Z,2.47
2019-01-18T12:19:11.412Z,2.51
2019-01-18T12:20:17.716Z,2.52
2019-01-18T12:21:24.177Z,2.61
2019-01-18T12:22:29.871Z,2.29
2019-01-18T12:23:35.889Z,2.14
2019-01-18T12:24:42.210Z,2.17
2019-01-18T12:25:48.585Z,2.39
2019-01-18T12:26:54.929Z,2.49
2019-01-18T12:28:01.288Z,2.58
2019-01-18T12:29:07.292Z,2.41
2019-01-18T12:30:17.771Z,2.40
2019-01-18T12:31:24.143Z,2.22
2019-01-18T12:32:30.507Z,2.14
2019-01-18T12:33:36.862Z,2.20
2019-01-18T12:34:43.183Z,2.23
2019-01-18T12:35:49.578Z,2.27
2019-01-18T12:36:58.891Z,2.44
2019-01-18T12:38:01.555Z,2.55
2019-01-18T12:39:07.942Z,2.59
2019-01-18T12:40:14.377Z,2.56
2019-01-18T12:41:20.708Z,2.52
2019-01-18T12:42:27.053Z,2.36
2019-01-18T12:43:33.407Z,2.42
2019-01-18T12:44:39.817Z,2.61
2019-01-18T12:45:46.176Z,2.65
2019-01-18T12:46:52.916Z,2.70
2019-01-18T12:47:59.297Z,2.93
2019-01-18T12:49:06.270Z,2.83
2019-01-18T12:50:26.162Z,2.95
2019-01-18T12:51:32.512Z,2.70
2019-01-18T12:52:38.604Z,2.63
2019-01-18T12:53:44.569Z,2.67
2019-01-18T12:54:50.941Z,2.89
2019-01-18T12:55:57.329Z,3.01
2019-01-18T12:57:03.300Z,2.90
2019-01-18T12:58:09.345Z,2.82
2019-01-18T12:59:15.692Z,2.72
2019-01-18T13:00:21.471Z,2.73
2019-01-18T13:01:27.594Z,2.73
2019-01-18T13:02:35.416Z,2.95
2019-01-18T13:03:40.381Z,2.91
2019-01-18T13:04:46.708Z,2.98
2019-01-18T13:05:52.804Z,3.03
2019-01-18T13:06:59.188Z,2.99
2019-01-18T13:08:05.257Z,2.97
2019-01-18T13:09:11.762Z,3.03
2019-01-18T13:10:18.709Z,3.09
2019-01-18T13:11:25.203Z,3.25
2019-01-18T13:12:31.572Z,3.48
2019-01-18T13:13:38.467Z,3.61
2019-01-18T13:14:44.828Z,3.81
2019-01-18T13:15:51.525Z,3.78
2019-01-18T13:16:59.075Z,3.82
2019-01-18T13:18:05.573Z,3.81
2019-01-18T13:19:12.933Z,3.64
2019-01-18T13:20:20.043Z,3.33
2019-01-18T13:21:26.505Z,3.62
2019-01-18T13:22:32.636Z,3.81
2019-01-18T13:23:39.024Z,3.93
2019-01-18T13:24:45.362Z,4.11
2019-01-18T13:25:51.759Z,3.77
2019-01-18T13:26:58.152Z,3.88
2019-01-18T13:28:03.856Z,3.83
2019-01-18T13:29:10.254Z,3.68
2019-01-18T13:30:15.967Z,3.97
2019-01-18T13:31:22.384Z,3.90
2019-01-18T13:32:28.079Z,3.97
2019-01-18T13:33:33.855Z,3.97
2019-01-18T13:34:40.198Z,4.00
2019-01-18T13:35:46.256Z,4.18
2019-01-18T13:36:52.652Z,3.95
2019-01-18T13:37:58.638Z,4.16
2019-01-18T13:39:04.308Z,4.21
2019-01-18T13:40:10.935Z,4.28
2019-01-18T13:41:16.884Z,4.31
2019-01-18T13:42:23.233Z,4.37
2019-01-18T13:43:29.576Z,4.57
2019-01-18T13:44:35.651Z,4.55
2019-01-18T13:45:41.978Z,4.25
2019-01-18T13:46:48.402Z,4.13
2019-01-18T13:47:54.428Z,4.35
2019-01-18T13:49:00.809Z,4.50
2019-01-18T13:50:09.209Z,4.45
2019-01-18T13:51:15.718Z,4.12
2019-01-18T13:52:22.145Z,4.03
2019-01-18T13:53:28.442Z,4.23
2019-01-18T13:54:34.817Z,4.23
2019-01-18T13:55:41.170Z,4.42
2019-01-18T13:56:47.546Z,3.98
2019-01-18T13:57:53.611Z,3.94
2019-01-18T13:59:00.122Z,4.06
2019-01-18T14:00:05.800Z,4.25
2019-01-18T14:01:11.861Z,3.99
2019-01-18T14:02:18.247Z,3.86
2019-01-18T14:03:24.254Z,3.81
2019-01-18T14:04:30.564Z,3.75
2019-01-18T14:05:36.952Z,3.72
2019-01-18T14:06:43.282Z,3.45
2019-01-18T14:07:53.215Z,3.41
2019-01-18T14:08:55.907Z,3.37
2019-01-18T14:10:03.269Z,3.45
2019-01-18T14:11:09.271Z,3.64
2019-01-18T14:12:15.702Z,3.74
2019-01-18T14:13:21.828Z,3.66
2019-01-18T14:14:27.958Z,3.35
2019-01-18T14:15:33.939Z,3.29
2019-01-18T14:16:40.356Z,3.31
2019-01-18T14:17:46.714Z,3.34
2019-01-18T14:18:53.178Z,3.26
2019-01-18T14:19:59.559Z,3.13
2019-01-18T14:21:05.193Z,3.20
2019-01-18T14:22:11.934Z,3.13
2019-01-18T14:23:17.966Z,2.97
2019-01-18T14:24:24.347Z,3.14
2019-01-18T14:25:30.674Z,3.19
2019-01-18T14:26:36.676Z,3.13
2019-01-18T14:27:43.115Z,2.95
2019-01-18T14:28:49.491Z,2.53
2019-01-18T14:29:55.863Z,2.29
2019-01-18T14:31:01.894Z,2.40
2019-01-18T14:32:08.302Z,2.55
2019-01-18T14:33:14.676Z,2.58
2019-01-18T14:34:21.043Z,2.74
2019-01-18T14:35:27.059Z,2.90
2019-01-18T14:36:33.076Z,2.80
2019-01-18T14:37:39.515Z,2.74
2019-01-18T14:38:45.866Z,2.70
2019-01-18T14:39:52.314Z,2.82